sensor_id;sensor_type;location;lat;lon;timestamp;temperature;humidity
2012;DHT22;1009;51.436;6.972;2022-12-07T00:02:26;5.80;99.90
2012;DHT22;1009;51.436;6.972;2022-12-07T00:04:53;5.80;99.90
2012;DHT22;1009;51.436;6.972;2022-12-07T00:07:20;5.80;99.90
2012;DHT22;1009;51.436;6.972;2022-12-07T00:09:46;5.80;99.90
2012;DHT22;1009;51.436;6.972;2022-12-07T00:12:14;5.70;99.90
2012;DHT22;1009;51.436;6.972;2022-12-07T00:14:41;5.80;99.90
2012;DHT22;1009;51.436;6.972;2022-12-07T00:17:08;5.70;99.90
2012;DHT22;1009;51.436;6.972;2022-12-07T00:19:34;5.70;99.90
2012;DHT22;1009;51.436;6.972;2022-12-07T00:22:01;5.70;99.90
2012;DHT22;1009;51.436;6.972;2022-12-07T00:24:28;5.80;99.90
2012;DHT22;1009;51.436;6.972;2022-12-07T00:26:54;5.70;99.90
2012;DHT22;1009;51.436;6.972;2022-12-07T00:29:22;5.70;99.90
2012;DHT22;1009;51.436;6.972;2022-12-07T00:31:49;5.80;99.90
2012;DHT22;1009;51.436;6.972;2022-12-07T00:34:17;5.80;99.90
2012;DHT22;1009;51.436;6.972;2022-12-07T00:36:44;5.80;99.90
2012;DHT22;1009;51.436;6.972;2022-12-07T00:39:11;5.80;99.90
2012;DHT22;1009;51.436;6.972;2022-12-07T00:41:38;5.80;99.90
2012;DHT22;1009;51.436;6.972;2022-12-07T00:44:04;5.80;99.90
2012;DHT22;1009;51.436;6.972;2022-12-07T00:46:32;5.80;99.90
2012;DHT22;1009;51.436;6.972;2022-12-07T00:48:59;5.80;99.90
2012;DHT22;1009;51.436;6.972;2022-12-07T00:51:26;5.70;99.90
2012;DHT22;1009;51.436;6.972;2022-12-07T00:53:53;5.80;99.90
2012;DHT22;1009;51.436;6.972;2022-12-07T00:56:22;5.80;99.90
2012;DHT22;1009;51.436;6.972;2022-12-07T00:58:53;5.90;99.90
2012;DHT22;1009;51.436;6.972;2022-12-07T01:01:21;5.90;99.90
2012;DHT22;1009;51.436;6.972;2022-12-07T01:03:49;5.80;99.90
2012;DHT22;1009;51.436;6.972;2022-12-07T01:06:18;5.90;99.90
2012;DHT22;1009;51.436;6.972;2022-12-07T01:08:45;5.80;99.90
2012;DHT22;1009;51.436;6.972;2022-12-07T01:11:14;5.70;99.90
2012;DHT22;1009;51.436;6.972;2022-12-07T01:13:41;5.70;99.90
2012;DHT22;1009;51.436;6.972;2022-12-07T01:16:10;5.70;99.90
2012;DHT22;1009;51.436;6.972;2022-12-07T01:18:38;5.70;99.90
2012;DHT22;1009;51.436;6.972;2022-12-07T01:21:08;5.70;99.90
2012;DHT22;1009;51.436;6.972;2022-12-07T01:23:36;5.70;99.90
2012;DHT22;1009;51.436;6.972;2022-12-07T01:26:05;5.80;99.90
2012;DHT22;1009;51.436;6.972;2022-12-07T01:28:33;5.70;99.90
2012;DHT22;1009;51.436;6.972;2022-12-07T01:31:01;5.80;99.90
2012;DHT22;1009;51.436;6.972;2022-12-07T01:33:32;5.80;99.90
2012;DHT22;1009;51.436;6.972;2022-12-07T01:36:02;5.80;99.90
2012;DHT22;1009;51.436;6.972;2022-12-07T01:38:32;5.80;99.90
2012;DHT22;1009;51.436;6.972;2022-12-07T01:41:00;5.80;99.90
2012;DHT22;1009;51.436;6.972;2022-12-07T01:43:29;5.80;99.90
2012;DHT22;1009;51.436;6.972;2022-12-07T01:45:56;5.80;99.90
2012;DHT22;1009;51.436;6.972;2022-12-07T01:48:26;5.70;99.90
2012;DHT22;1009;51.436;6.972;2022-12-07T01:50:55;5.70;99.90
2012;DHT22;1009;51.436;6.972;2022-12-07T01:53:25;5.70;99.90
2012;DHT22;1009;51.436;6.972;2022-12-07T01:55:56;5.70;99.90
2012;DHT22;1009;51.436;6.972;2022-12-07T01:58:24;5.80;99.90
2012;DHT22;1009;51.436;6.972;2022-12-07T02:00:51;5.80;99.90
2012;DHT22;1009;51.436;6.972;2022-12-07T02:03:21;5.80;99.90
2012;DHT22;1009;51.436;6.972;2022-12-07T02:05:49;5.70;99.90
2012;DHT22;1009;51.436;6.972;2022-12-07T02:08:16;5.80;99.90
2012;DHT22;1009;51.436;6.972;2022-12-07T02:10:44;5.80;99.90
2012;DHT22;1009;51.436;6.972;2022-12-07T02:13:15;5.70;99.90
2012;DHT22;1009;51.436;6.972;2022-12-07T02:16:14;5.70;99.90
2012;DHT22;1009;51.436;6.972;2022-12-07T02:18:52;5.70;99.90
2012;DHT22;1009;51.436;6.972;2022-12-07T02:21:29;5.70;99.90
2012;DHT22;1009;51.436;6.972;2022-12-07T02:24:31;5.70;99.90
2012;DHT22;1009;51.436;6.972;2022-12-07T02:27:16;5.60;99.90
2012;DHT22;1009;51.436;6.972;2022-12-07T02:29:51;5.60;99.90
2012;DHT22;1009;51.436;6.972;2022-12-07T02:32:26;5.60;99.90
2012;DHT22;1009;51.436;6.972;2022-12-07T02:34:56;5.70;99.90
2012;DHT22;1009;51.436;6.972;2022-12-07T02:37:32;5.60;99.90
2012;DHT22;1009;51.436;6.972;2022-12-07T02:40:02;5.60;99.90
2012;DHT22;1009;51.436;6.972;2022-12-07T02:42:36;5.60;99.90
2012;DHT22;1009;51.436;6.972;2022-12-07T02:45:07;5.50;99.90
2012;DHT22;1009;51.436;6.972;2022-12-07T02:47:36;5.50;99.90
2012;DHT22;1009;51.436;6.972;2022-12-07T02:50:04;5.60;99.90
2012;DHT22;1009;51.436;6.972;2022-12-07T02:52:31;5.50;99.90
2012;DHT22;1009;51.436;6.972;2022-12-07T02:54:58;5.60;99.90
2012;DHT22;1009;51.436;6.972;2022-12-07T02:57:35;5.50;99.90
2012;DHT22;1009;51.436;6.972;2022-12-07T03:00:09;5.60;99.90
2012;DHT22;1009;51.436;6.972;2022-12-07T03:02:44;5.50;99.90
2012;DHT22;1009;51.436;6.972;2022-12-07T03:05:37;5.50;99.90
2012;DHT22;1009;51.436;6.972;2022-12-07T03:08:13;5.50;99.90
2012;DHT22;1009;51.436;6.972;2022-12-07T03:10:50;5.50;99.90
2012;DHT22;1009;51.436;6.972;2022-12-07T03:13:27;5.50;99.90
2012;DHT22;1009;51.436;6.972;2022-12-07T03:16:02;5.50;99.90
2012;DHT22;1009;51.436;6.972;2022-12-07T03:18:31;5.50;99.90
2012;DHT22;1009;51.436;6.972;2022-12-07T03:21:04;5.50;99.90
2012;DHT22;1009;51.436;6.972;2022-12-07T03:23:34;5.40;99.90
2012;DHT22;1009;51.436;6.972;2022-12-07T03:26:03;5.40;99.90
2012;DHT22;1009;51.436;6.972;2022-12-07T03:28:33;5.30;99.90
2012;DHT22;1009;51.436;6.972;2022-12-07T03:31:06;5.40;99.90
2012;DHT22;1009;51.436;6.972;2022-12-07T03:33:41;5.40;99.90
2012;DHT22;1009;51.436;6.972;2022-12-07T03:36:12;5.30;99.90
2012;DHT22;1009;51.436;6.972;2022-12-07T03:38:44;5.20;99.90
2012;DHT22;1009;51.436;6.972;2022-12-07T03:41:17;5.20;99.90
2012;DHT22;1009;51.436;6.972;2022-12-07T03:43:44;5.20;99.90
2012;DHT22;1009;51.436;6.972;2022-12-07T03:46:19;5.20;99.90
2012;DHT22;1009;51.436;6.972;2022-12-07T03:48:54;5.10;99.90
2012;DHT22;1009;51.436;6.972;2022-12-07T03:51:25;5.10;99.90
2012;DHT22;1009;51.436;6.972;2022-12-07T03:53:58;5.10;99.90
2012;DHT22;1009;51.436;6.972;2022-12-07T03:56:27;5.00;99.90
2012;DHT22;1009;51.436;6.972;2022-12-07T03:58:55;5.00;99.90
2012;DHT22;1009;51.436;6.972;2022-12-07T04:01:24;5.00;99.90
2012;DHT22;1009;51.436;6.972;2022-12-07T04:03:51;5.10;99.90
2012;DHT22;1009;51.436;6.972;2022-12-07T04:06:17;5.10;99.90
2012;DHT22;1009;51.436;6.972;2022-12-07T04:08:44;5.10;99.90
2012;DHT22;1009;51.436;6.972;2022-12-07T04:11:11;5.10;99.90
2012;DHT22;1009;51.436;6.972;2022-12-07T04:13:37;5.10;99.90
2012;DHT22;1009;51.436;6.972;2022-12-07T04:16:18;5.10;99.90
2012;DHT22;1009;51.436;6.972;2022-12-07T04:18:46;5.10;99.90
2012;DHT22;1009;51.436;6.972;2022-12-07T04:21:13;5.20;99.90
2012;DHT22;1009;51.436;6.972;2022-12-07T04:23:40;5.00;99.90
2012;DHT22;1009;51.436;6.972;2022-12-07T04:26:06;5.00;99.90
2012;DHT22;1009;51.436;6.972;2022-12-07T04:28:33;5.00;99.90
2012;DHT22;1009;51.436;6.972;2022-12-07T04:31:00;5.00;99.90
2012;DHT22;1009;51.436;6.972;2022-12-07T04:33:26;5.00;99.90
2012;DHT22;1009;51.436;6.972;2022-12-07T04:35:54;4.90;99.90
2012;DHT22;1009;51.436;6.972;2022-12-07T04:38:21;4.90;99.90
2012;DHT22;1009;51.436;6.972;2022-12-07T04:40:48;4.90;99.90
2012;DHT22;1009;51.436;6.972;2022-12-07T04:43:15;4.90;99.90
2012;DHT22;1009;51.436;6.972;2022-12-07T04:45:45;4.80;99.90
2012;DHT22;1009;51.436;6.972;2022-12-07T04:48:12;4.80;99.90
2012;DHT22;1009;51.436;6.972;2022-12-07T04:50:39;4.80;99.90
2012;DHT22;1009;51.436;6.972;2022-12-07T04:53:07;4.80;99.90
2012;DHT22;1009;51.436;6.972;2022-12-07T04:55:34;4.90;99.90
2012;DHT22;1009;51.436;6.972;2022-12-07T04:58:00;4.80;99.90
2012;DHT22;1009;51.436;6.972;2022-12-07T05:00:27;4.80;99.90
2012;DHT22;1009;51.436;6.972;2022-12-07T05:02:54;4.90;99.90
2012;DHT22;1009;51.436;6.972;2022-12-07T05:05:21;4.80;99.90
2012;DHT22;1009;51.436;6.972;2022-12-07T05:07:47;4.80;99.90
2012;DHT22;1009;51.436;6.972;2022-12-07T05:10:16;4.80;99.90
2012;DHT22;1009;51.436;6.972;2022-12-07T05:12:42;4.80;99.90
2012;DHT22;1009;51.436;6.972;2022-12-07T05:15:10;4.90;99.90
2012;DHT22;1009;51.436;6.972;2022-12-07T05:17:36;4.90;99.90
2012;DHT22;1009;51.436;6.972;2022-12-07T05:20:04;4.80;99.90
2012;DHT22;1009;51.436;6.972;2022-12-07T05:22:31;4.80;99.90
2012;DHT22;1009;51.436;6.972;2022-12-07T05:24:58;4.80;99.90
2012;DHT22;1009;51.436;6.972;2022-12-07T05:27:26;4.80;99.90
2012;DHT22;1009;51.436;6.972;2022-12-07T05:29:53;4.80;99.90
2012;DHT22;1009;51.436;6.972;2022-12-07T05:32:19;4.80;99.90
2012;DHT22;1009;51.436;6.972;2022-12-07T05:34:46;4.80;99.90
2012;DHT22;1009;51.436;6.972;2022-12-07T05:37:13;4.80;99.90
2012;DHT22;1009;51.436;6.972;2022-12-07T05:39:39;4.80;99.90
2012;DHT22;1009;51.436;6.972;2022-12-07T05:42:08;4.80;99.90
2012;DHT22;1009;51.436;6.972;2022-12-07T05:44:40;4.90;99.90
2012;DHT22;1009;51.436;6.972;2022-12-07T05:47:07;4.90;99.90
2012;DHT22;1009;51.436;6.972;2022-12-07T05:49:33;4.90;99.90
2012;DHT22;1009;51.436;6.972;2022-12-07T05:52:00;4.90;99.90
2012;DHT22;1009;51.436;6.972;2022-12-07T05:54:27;5.00;99.90
2012;DHT22;1009;51.436;6.972;2022-12-07T05:56:54;4.90;99.90
2012;DHT22;1009;51.436;6.972;2022-12-07T05:59:21;4.90;99.90
2012;DHT22;1009;51.436;6.972;2022-12-07T06:01:52;4.90;99.90
2012;DHT22;1009;51.436;6.972;2022-12-07T06:04:19;4.90;99.90
2012;DHT22;1009;51.436;6.972;2022-12-07T06:06:46;4.90;99.90
2012;DHT22;1009;51.436;6.972;2022-12-07T06:09:13;4.90;99.90
2012;DHT22;1009;51.436;6.972;2022-12-07T06:11:40;4.90;99.90
2012;DHT22;1009;51.436;6.972;2022-12-07T06:14:25;4.80;99.90
2012;DHT22;1009;51.436;6.972;2022-12-07T06:16:53;4.90;99.90
2012;DHT22;1009;51.436;6.972;2022-12-07T06:19:19;4.90;99.90
2012;DHT22;1009;51.436;6.972;2022-12-07T06:21:46;4.90;99.90
2012;DHT22;1009;51.436;6.972;2022-12-07T06:24:14;4.90;99.90
2012;DHT22;1009;51.436;6.972;2022-12-07T06:26:41;4.90;99.90
2012;DHT22;1009;51.436;6.972;2022-12-07T06:29:09;4.80;99.90
2012;DHT22;1009;51.436;6.972;2022-12-07T06:31:36;4.90;99.90
2012;DHT22;1009;51.436;6.972;2022-12-07T06:34:06;4.90;99.90
2012;DHT22;1009;51.436;6.972;2022-12-07T06:36:33;4.90;99.90
2012;DHT22;1009;51.436;6.972;2022-12-07T06:39:00;4.90;99.90
2012;DHT22;1009;51.436;6.972;2022-12-07T06:41:27;4.90;99.90
2012;DHT22;1009;51.436;6.972;2022-12-07T06:43:53;4.90;99.90
2012;DHT22;1009;51.436;6.972;2022-12-07T06:46:20;4.90;99.90
2012;DHT22;1009;51.436;6.972;2022-12-07T06:48:47;4.90;99.90
2012;DHT22;1009;51.436;6.972;2022-12-07T06:51:15;4.90;99.90
2012;DHT22;1009;51.436;6.972;2022-12-07T06:53:42;4.80;99.90
2012;DHT22;1009;51.436;6.972;2022-12-07T06:56:09;4.70;99.90
2012;DHT22;1009;51.436;6.972;2022-12-07T06:58:35;4.70;99.90
2012;DHT22;1009;51.436;6.972;2022-12-07T07:01:02;4.60;99.90
2012;DHT22;1009;51.436;6.972;2022-12-07T07:03:29;4.60;99.90
2012;DHT22;1009;51.436;6.972;2022-12-07T07:05:56;4.50;99.90
2012;DHT22;1009;51.436;6.972;2022-12-07T07:08:24;4.60;99.90
2012;DHT22;1009;51.436;6.972;2022-12-07T07:10:50;4.60;99.90
2012;DHT22;1009;51.436;6.972;2022-12-07T07:13:17;4.60;99.90
2012;DHT22;1009;51.436;6.972;2022-12-07T07:15:44;4.60;99.90
2012;DHT22;1009;51.436;6.972;2022-12-07T07:18:11;4.70;99.90
2012;DHT22;1009;51.436;6.972;2022-12-07T07:20:38;4.70;99.90
2012;DHT22;1009;51.436;6.972;2022-12-07T07:23:05;4.70;99.90
2012;DHT22;1009;51.436;6.972;2022-12-07T07:25:33;4.70;99.90
2012;DHT22;1009;51.436;6.972;2022-12-07T07:28:01;4.60;99.90
2012;DHT22;1009;51.436;6.972;2022-12-07T07:30:27;4.60;99.90
2012;DHT22;1009;51.436;6.972;2022-12-07T07:32:56;4.60;99.90
2012;DHT22;1009;51.436;6.972;2022-12-07T07:35:23;4.60;99.90
2012;DHT22;1009;51.436;6.972;2022-12-07T07:37:50;4.60;99.90
2012;DHT22;1009;51.436;6.972;2022-12-07T07:40:17;4.60;99.90
2012;DHT22;1009;51.436;6.972;2022-12-07T07:42:47;4.50;99.90
2012;DHT22;1009;51.436;6.972;2022-12-07T07:45:13;4.60;99.90
2012;DHT22;1009;51.436;6.972;2022-12-07T07:47:40;4.60;99.90
2012;DHT22;1009;51.436;6.972;2022-12-07T07:50:08;4.60;99.90
2012;DHT22;1009;51.436;6.972;2022-12-07T07:52:34;4.70;99.90
2012;DHT22;1009;51.436;6.972;2022-12-07T07:55:02;4.70;99.90
2012;DHT22;1009;51.436;6.972;2022-12-07T07:57:29;4.70;99.90
2012;DHT22;1009;51.436;6.972;2022-12-07T07:59:57;4.70;99.90
2012;DHT22;1009;51.436;6.972;2022-12-07T08:02:24;4.70;99.90
2012;DHT22;1009;51.436;6.972;2022-12-07T08:04:50;4.70;99.90
2012;DHT22;1009;51.436;6.972;2022-12-07T08:07:17;4.70;99.90
2012;DHT22;1009;51.436;6.972;2022-12-07T08:09:44;4.70;99.90
2012;DHT22;1009;51.436;6.972;2022-12-07T08:12:10;4.80;99.90
2012;DHT22;1009;51.436;6.972;2022-12-07T08:14:37;4.80;99.90
2012;DHT22;1009;51.436;6.972;2022-12-07T08:17:05;4.80;99.90
2012;DHT22;1009;51.436;6.972;2022-12-07T08:19:32;4.80;99.90
2012;DHT22;1009;51.436;6.972;2022-12-07T08:22:00;4.90;99.90
2012;DHT22;1009;51.436;6.972;2022-12-07T08:24:26;4.90;99.90
2012;DHT22;1009;51.436;6.972;2022-12-07T08:26:53;4.90;99.90
2012;DHT22;1009;51.436;6.972;2022-12-07T08:29:20;5.00;99.90
2012;DHT22;1009;51.436;6.972;2022-12-07T08:31:47;4.90;99.90
2012;DHT22;1009;51.436;6.972;2022-12-07T08:34:15;5.00;99.90
2012;DHT22;1009;51.436;6.972;2022-12-07T08:36:41;5.00;99.90
2012;DHT22;1009;51.436;6.972;2022-12-07T08:39:08;5.00;99.90
2012;DHT22;1009;51.436;6.972;2022-12-07T08:41:35;5.10;99.90
2012;DHT22;1009;51.436;6.972;2022-12-07T08:44:02;5.10;99.90
2012;DHT22;1009;51.436;6.972;2022-12-07T08:46:32;5.10;99.90
2012;DHT22;1009;51.436;6.972;2022-12-07T08:49:05;5.20;99.90
2012;DHT22;1009;51.436;6.972;2022-12-07T08:51:34;5.10;99.90
2012;DHT22;1009;51.436;6.972;2022-12-07T08:54:02;5.00;99.90
2012;DHT22;1009;51.436;6.972;2022-12-07T08:56:30;4.90;99.90
2012;DHT22;1009;51.436;6.972;2022-12-07T08:58:58;4.90;99.90
2012;DHT22;1009;51.436;6.972;2022-12-07T09:01:24;4.90;99.90
2012;DHT22;1009;51.436;6.972;2022-12-07T09:03:52;5.00;99.90
2012;DHT22;1009;51.436;6.972;2022-12-07T09:06:19;4.90;99.90
2012;DHT22;1009;51.436;6.972;2022-12-07T09:08:49;4.90;99.90
2012;DHT22;1009;51.436;6.972;2022-12-07T09:11:17;4.90;99.90
2012;DHT22;1009;51.436;6.972;2022-12-07T09:13:44;4.90;99.90
2012;DHT22;1009;51.436;6.972;2022-12-07T09:16:10;4.90;99.90
2012;DHT22;1009;51.436;6.972;2022-12-07T09:18:37;4.90;99.90
2012;DHT22;1009;51.436;6.972;2022-12-07T09:21:05;4.90;99.90
2012;DHT22;1009;51.436;6.972;2022-12-07T09:23:31;5.00;99.90
2012;DHT22;1009;51.436;6.972;2022-12-07T09:26:00;5.00;99.90
2012;DHT22;1009;51.436;6.972;2022-12-07T09:28:27;5.10;99.90
2012;DHT22;1009;51.436;6.972;2022-12-07T09:30:53;5.20;99.90
2012;DHT22;1009;51.436;6.972;2022-12-07T09:33:20;5.20;99.90
2012;DHT22;1009;51.436;6.972;2022-12-07T09:35:48;5.20;99.90
2012;DHT22;1009;51.436;6.972;2022-12-07T09:38:15;5.20;99.90
2012;DHT22;1009;51.436;6.972;2022-12-07T09:40:42;5.30;99.90
2012;DHT22;1009;51.436;6.972;2022-12-07T09:43:14;5.30;99.90
2012;DHT22;1009;51.436;6.972;2022-12-07T09:45:42;5.30;99.90
2012;DHT22;1009;51.436;6.972;2022-12-07T09:48:16;5.40;99.90
2012;DHT22;1009;51.436;6.972;2022-12-07T09:50:44;5.40;99.90
2012;DHT22;1009;51.436;6.972;2022-12-07T09:53:18;5.50;99.90
2012;DHT22;1009;51.436;6.972;2022-12-07T09:55:46;5.40;99.90
2012;DHT22;1009;51.436;6.972;2022-12-07T09:58:20;5.50;99.90
2012;DHT22;1009;51.436;6.972;2022-12-07T10:00:48;5.40;99.90
2012;DHT22;1009;51.436;6.972;2022-12-07T10:03:16;5.40;99.90
2012;DHT22;1009;51.436;6.972;2022-12-07T10:05:45;5.50;99.90
2012;DHT22;1009;51.436;6.972;2022-12-07T10:08:12;5.60;99.90
2012;DHT22;1009;51.436;6.972;2022-12-07T10:10:41;5.50;99.90
2012;DHT22;1009;51.436;6.972;2022-12-07T10:13:09;5.60;99.90
2012;DHT22;1009;51.436;6.972;2022-12-07T10:15:47;5.70;99.90
2012;DHT22;1009;51.436;6.972;2022-12-07T10:18:26;5.60;99.90
2012;DHT22;1009;51.436;6.972;2022-12-07T10:24:00;5.70;99.90
2012;DHT22;1009;51.436;6.972;2022-12-07T10:26:30;6.00;99.90
2012;DHT22;1009;51.436;6.972;2022-12-07T10:28:59;6.30;99.90
2012;DHT22;1009;51.436;6.972;2022-12-07T10:31:30;6.50;99.90
2012;DHT22;1009;51.436;6.972;2022-12-07T10:33:58;6.60;99.90
2012;DHT22;1009;51.436;6.972;2022-12-07T10:36:30;6.60;99.90
2012;DHT22;1009;51.436;6.972;2022-12-07T10:39:03;6.50;99.90
2012;DHT22;1009;51.436;6.972;2022-12-07T10:41:30;6.40;99.90
2012;DHT22;1009;51.436;6.972;2022-12-07T10:43:58;6.50;99.90
2012;DHT22;1009;51.436;6.972;2022-12-07T10:50:02;6.70;99.90
2012;DHT22;1009;51.436;6.972;2022-12-07T10:55:29;6.70;99.90
2012;DHT22;1009;51.436;6.972;2022-12-07T10:58:12;6.70;99.90
2012;DHT22;1009;51.436;6.972;2022-12-07T11:00:47;6.60;99.90
2012;DHT22;1009;51.436;6.972;2022-12-07T11:03:34;6.60;99.90
2012;DHT22;1009;51.436;6.972;2022-12-07T11:06:12;6.60;99.90
2012;DHT22;1009;51.436;6.972;2022-12-07T11:08:53;6.60;99.90
2012;DHT22;1009;51.436;6.972;2022-12-07T11:11:28;6.70;99.90
2012;DHT22;1009;51.436;6.972;2022-12-07T11:14:01;6.70;99.90
2012;DHT22;1009;51.436;6.972;2022-12-07T11:16:41;6.60;99.90
2012;DHT22;1009;51.436;6.972;2022-12-07T11:19:29;6.50;99.90
2012;DHT22;1009;51.436;6.972;2022-12-07T11:22:01;6.60;99.90
2012;DHT22;1009;51.436;6.972;2022-12-07T11:24:35;6.50;99.90
2012;DHT22;1009;51.436;6.972;2022-12-07T11:27:14;6.50;99.90
2012;DHT22;1009;51.436;6.972;2022-12-07T11:29:56;6.50;99.90
2012;DHT22;1009;51.436;6.972;2022-12-07T11:32:40;6.40;99.90
2012;DHT22;1009;51.436;6.972;2022-12-07T11:35:19;6.50;99.90
2012;DHT22;1009;51.436;6.972;2022-12-07T11:37:49;6.40;99.90
2012;DHT22;1009;51.436;6.972;2022-12-07T11:40:21;6.30;99.90
2012;DHT22;1009;51.436;6.972;2022-12-07T11:42:53;6.40;99.90
2012;DHT22;1009;51.436;6.972;2022-12-07T11:45:25;6.40;99.90
2012;DHT22;1009;51.436;6.972;2022-12-07T11:47:55;6.50;99.90
2012;DHT22;1009;51.436;6.972;2022-12-07T11:50:32;6.50;99.90
2012;DHT22;1009;51.436;6.972;2022-12-07T11:53:02;6.60;99.90
2012;DHT22;1009;51.436;6.972;2022-12-07T11:55:38;6.60;99.90
2012;DHT22;1009;51.436;6.972;2022-12-07T11:58:18;6.60;99.90
2012;DHT22;1009;51.436;6.972;2022-12-07T12:00:51;6.70;99.90
2012;DHT22;1009;51.436;6.972;2022-12-07T12:03:30;6.80;99.90
2012;DHT22;1009;51.436;6.972;2022-12-07T12:05:58;6.80;99.90
2012;DHT22;1009;51.436;6.972;2022-12-07T12:08:28;6.70;99.90
2012;DHT22;1009;51.436;6.972;2022-12-07T12:11:02;6.70;99.90
2012;DHT22;1009;51.436;6.972;2022-12-07T12:16:49;6.80;99.90
2012;DHT22;1009;51.436;6.972;2022-12-07T12:19:33;6.70;99.90
2012;DHT22;1009;51.436;6.972;2022-12-07T12:22:11;6.70;99.90
2012;DHT22;1009;51.436;6.972;2022-12-07T12:24:40;6.70;99.90
2012;DHT22;1009;51.436;6.972;2022-12-07T12:27:09;6.70;99.90
2012;DHT22;1009;51.436;6.972;2022-12-07T12:29:38;6.70;99.90
2012;DHT22;1009;51.436;6.972;2022-12-07T12:32:12;6.60;99.90
2012;DHT22;1009;51.436;6.972;2022-12-07T12:34:42;6.60;99.90
2012;DHT22;1009;51.436;6.972;2022-12-07T12:37:43;6.60;99.90
2012;DHT22;1009;51.436;6.972;2022-12-07T12:40:43;6.60;99.90
2012;DHT22;1009;51.436;6.972;2022-12-07T12:43:48;6.70;99.90
2012;DHT22;1009;51.436;6.972;2022-12-07T12:46:56;6.80;99.90
2012;DHT22;1009;51.436;6.972;2022-12-07T12:49:35;6.70;99.90
2012;DHT22;1009;51.436;6.972;2022-12-07T12:55:19;6.60;99.90
2012;DHT22;1009;51.436;6.972;2022-12-07T12:58:21;6.60;99.90
2012;DHT22;1009;51.436;6.972;2022-12-07T13:00:46;6.60;99.90
2012;DHT22;1009;51.436;6.972;2022-12-07T13:03:24;6.60;99.90
2012;DHT22;1009;51.436;6.972;2022-12-07T13:06:18;6.50;99.90
2012;DHT22;1009;51.436;6.972;2022-12-07T13:08:45;6.50;99.90
2012;DHT22;1009;51.436;6.972;2022-12-07T13:11:20;6.50;99.90
2012;DHT22;1009;51.436;6.972;2022-12-07T13:13:51;6.60;99.90
2012;DHT22;1009;51.436;6.972;2022-12-07T13:16:48;6.60;99.90
2012;DHT22;1009;51.436;6.972;2022-12-07T13:22:52;6.60;99.90
2012;DHT22;1009;51.436;6.972;2022-12-07T13:25:45;6.70;99.90
2012;DHT22;1009;51.436;6.972;2022-12-07T13:28:17;6.60;99.90
2012;DHT22;1009;51.436;6.972;2022-12-07T13:30:58;6.60;99.90
2012;DHT22;1009;51.436;6.972;2022-12-07T13:33:28;6.60;99.90
2012;DHT22;1009;51.436;6.972;2022-12-07T13:35:55;6.50;99.90
2012;DHT22;1009;51.436;6.972;2022-12-07T13:38:28;6.40;99.90
2012;DHT22;1009;51.436;6.972;2022-12-07T13:41:12;6.40;99.90
2012;DHT22;1009;51.436;6.972;2022-12-07T13:43:46;6.30;99.90
2012;DHT22;1009;51.436;6.972;2022-12-07T13:46:14;6.30;99.90
2012;DHT22;1009;51.436;6.972;2022-12-07T13:48:45;6.30;99.90
2012;DHT22;1009;51.436;6.972;2022-12-07T13:51:23;6.30;99.90
2012;DHT22;1009;51.436;6.972;2022-12-07T13:53:52;6.30;99.90
2012;DHT22;1009;51.436;6.972;2022-12-07T13:56:22;6.20;99.90
2012;DHT22;1009;51.436;6.972;2022-12-07T13:58:54;6.20;99.90
2012;DHT22;1009;51.436;6.972;2022-12-07T14:01:21;6.20;99.90
2012;DHT22;1009;51.436;6.972;2022-12-07T14:03:50;6.20;99.90
2012;DHT22;1009;51.436;6.972;2022-12-07T14:06:23;6.20;99.90
2012;DHT22;1009;51.436;6.972;2022-12-07T14:09:06;6.30;99.90
2012;DHT22;1009;51.436;6.972;2022-12-07T14:11:33;6.30;99.90
2012;DHT22;1009;51.436;6.972;2022-12-07T14:14:02;6.30;99.90
2012;DHT22;1009;51.436;6.972;2022-12-07T14:16:31;6.30;99.90
2012;DHT22;1009;51.436;6.972;2022-12-07T14:19:00;6.20;99.90
2012;DHT22;1009;51.436;6.972;2022-12-07T14:21:28;6.20;99.90
2012;DHT22;1009;51.436;6.972;2022-12-07T14:24:17;6.20;99.90
2012;DHT22;1009;51.436;6.972;2022-12-07T14:26:45;6.30;99.90
2012;DHT22;1009;51.436;6.972;2022-12-07T14:29:30;6.30;99.90
2012;DHT22;1009;51.436;6.972;2022-12-07T14:32:17;6.30;99.90
2012;DHT22;1009;51.436;6.972;2022-12-07T14:34:53;6.20;99.90
2012;DHT22;1009;51.436;6.972;2022-12-07T14:37:20;6.30;99.90
2012;DHT22;1009;51.436;6.972;2022-12-07T14:39:46;6.20;99.90
2012;DHT22;1009;51.436;6.972;2022-12-07T14:42:13;6.20;99.90
2012;DHT22;1009;51.436;6.972;2022-12-07T14:44:41;6.20;99.90
2012;DHT22;1009;51.436;6.972;2022-12-07T14:47:09;6.20;99.90
2012;DHT22;1009;51.436;6.972;2022-12-07T14:49:36;6.10;99.90
2012;DHT22;1009;51.436;6.972;2022-12-07T14:52:03;6.10;99.90
2012;DHT22;1009;51.436;6.972;2022-12-07T14:54:31;6.10;99.90
2012;DHT22;1009;51.436;6.972;2022-12-07T14:56:59;6.00;99.90
2012;DHT22;1009;51.436;6.972;2022-12-07T14:59:26;6.00;99.90
2012;DHT22;1009;51.436;6.972;2022-12-07T15:01:54;5.90;99.90
2012;DHT22;1009;51.436;6.972;2022-12-07T15:04:20;5.90;99.90
2012;DHT22;1009;51.436;6.972;2022-12-07T15:06:55;5.90;99.90
2012;DHT22;1009;51.436;6.972;2022-12-07T15:09:22;5.80;99.90
2012;DHT22;1009;51.436;6.972;2022-12-07T15:11:49;5.80;99.90
2012;DHT22;1009;51.436;6.972;2022-12-07T15:14:15;5.80;99.90
2012;DHT22;1009;51.436;6.972;2022-12-07T15:16:42;5.80;99.90
2012;DHT22;1009;51.436;6.972;2022-12-07T15:19:16;5.80;99.90
2012;DHT22;1009;51.436;6.972;2022-12-07T15:21:43;5.80;99.90
2012;DHT22;1009;51.436;6.972;2022-12-07T15:24:10;5.70;99.90
2012;DHT22;1009;51.436;6.972;2022-12-07T15:26:38;5.70;99.90
2012;DHT22;1009;51.436;6.972;2022-12-07T15:29:05;5.70;99.90
2012;DHT22;1009;51.436;6.972;2022-12-07T15:31:33;5.70;99.90
2012;DHT22;1009;51.436;6.972;2022-12-07T15:34:00;5.70;99.90
2012;DHT22;1009;51.436;6.972;2022-12-07T15:36:29;5.60;99.90
2012;DHT22;1009;51.436;6.972;2022-12-07T15:38:56;5.60;99.90
2012;DHT22;1009;51.436;6.972;2022-12-07T15:41:24;5.50;99.90
2012;DHT22;1009;51.436;6.972;2022-12-07T15:43:50;5.50;99.90
2012;DHT22;1009;51.436;6.972;2022-12-07T15:46:36;5.50;99.90
2012;DHT22;1009;51.436;6.972;2022-12-07T15:49:04;5.40;99.90
2012;DHT22;1009;51.436;6.972;2022-12-07T15:51:33;5.40;99.90
2012;DHT22;1009;51.436;6.972;2022-12-07T15:54:00;5.30;99.90
2012;DHT22;1009;51.436;6.972;2022-12-07T15:56:27;5.30;99.90
2012;DHT22;1009;51.436;6.972;2022-12-07T15:58:55;5.30;99.90
2012;DHT22;1009;51.436;6.972;2022-12-07T16:01:22;5.30;99.90
2012;DHT22;1009;51.436;6.972;2022-12-07T16:03:49;5.40;99.90
2012;DHT22;1009;51.436;6.972;2022-12-07T16:06:16;5.40;99.90
2012;DHT22;1009;51.436;6.972;2022-12-07T16:08:45;5.40;99.90
2012;DHT22;1009;51.436;6.972;2022-12-07T16:11:12;5.50;99.90
2012;DHT22;1009;51.436;6.972;2022-12-07T16:13:39;5.50;99.90
2012;DHT22;1009;51.436;6.972;2022-12-07T16:16:09;5.50;99.90
2012;DHT22;1009;51.436;6.972;2022-12-07T16:18:36;5.50;99.90
2012;DHT22;1009;51.436;6.972;2022-12-07T16:21:04;5.40;99.90
2012;DHT22;1009;51.436;6.972;2022-12-07T16:23:31;5.40;99.90
2012;DHT22;1009;51.436;6.972;2022-12-07T16:26:05;5.40;99.90
2012;DHT22;1009;51.436;6.972;2022-12-07T16:28:33;5.40;99.90
2012;DHT22;1009;51.436;6.972;2022-12-07T16:31:01;5.40;99.90
2012;DHT22;1009;51.436;6.972;2022-12-07T16:33:28;5.40;99.90
2012;DHT22;1009;51.436;6.972;2022-12-07T16:35:54;5.50;99.90
2012;DHT22;1009;51.436;6.972;2022-12-07T16:38:21;5.50;99.90
2012;DHT22;1009;51.436;6.972;2022-12-07T16:40:51;5.50;99.90
2012;DHT22;1009;51.436;6.972;2022-12-07T16:43:19;5.40;99.90
2012;DHT22;1009;51.436;6.972;2022-12-07T16:45:46;5.40;99.90
2012;DHT22;1009;51.436;6.972;2022-12-07T16:48:13;5.50;99.90
2012;DHT22;1009;51.436;6.972;2022-12-07T16:50:40;5.40;99.90
2012;DHT22;1009;51.436;6.972;2022-12-07T16:53:07;5.40;99.90
2012;DHT22;1009;51.436;6.972;2022-12-07T16:55:36;5.50;99.90
2012;DHT22;1009;51.436;6.972;2022-12-07T16:58:02;5.50;99.90